Bookmark and Share
Track history (hours):
 

Doris T

Last reported at 2014-Apr-12 01:04 UTC. Time now 2014-Apr-21 07:27 UTC.
Position N 36°23' W 009°01'.
Warning: this ship's position is 9 days out of date.

Length 79 m; draft 5.1 m.

Type: Cargo ship. MMSI: 304010102.

NotesDate/timePositionNaut miles runAvg speedWind from/ knotsBaromVisibWave heightAir tempDewpointWater temp
2014-Apr-12 01:04N 36°23' W 009°01'54 8.1
2014-Apr-11 18:25N 37°08' W 009°37'28 8.8
2014-Apr-11 15:14N 37°36' W 009°45'14 8.5
2014-Apr-11 13:32N 37°50' W 009°49'9 8.4
2014-Apr-11 12:30N 37°58' W 009°52'8 8.4
2014-Apr-11 11:32N 38°06' W 009°54'18 8.5
2014-Apr-11 09:23N 38°24' W 009°59'  
2014-Apr-06 07:15N 50°17' W 001°14'710.0
2014-Apr-06 06:33N 50°19' W 001°04'45 8.5
2014-Apr-06 01:19N 50°33' E 000°03'11 6.2
2014-Apr-05 23:33N 50°36' E 000°19'7 6.9
2014-Apr-05 22:33N 50°38' E 000°29'8 8.3
2014-Apr-05 21:33N 50°42' E 000°41'9 9.0
2014-Apr-05 20:33N 50°47' E 000°53'19 8.4
2014-Apr-05 18:15N 50°59' E 001°17'5 7.0
2014-Apr-05 17:30N 51°03' E 001°23'6 6.1
2014-Apr-05 16:32N 51°06' E 001°30'5 5.2
2014-Apr-05 15:34N 51°10' E 001°37'6 5.8
2014-Apr-05 14:33N 51°13' E 001°44'7 7.3
2014-Apr-05 13:33N 51°19' E 001°51'9 7.7
2014-Apr-05 12:22N 51°24' E 002°04'10 8.7
2014-Apr-05 11:14N 51°21' E 002°18'710.2
2014-Apr-05 10:32N 51°23' E 002°30'9 9.5
2014-Apr-05 09:33N 51°24' E 002°44'9 9.0
2014-Apr-05 08:33N 51°24' E 002°59'9 9.0
2014-Apr-05 07:33N 51°25' E 003°13'9 8.8
2014-Apr-05 06:32N 51°25' E 003°27'8 8.6
2014-Apr-05 05:33N 51°26' E 003°41'7 7.0
2014-Apr-05 04:33N 51°22' E 003°50'5 4.8
2014-Apr-05 03:33N 51°26' E 003°56'5 5.5
2014-Apr-05 02:34N 51°24' E 004°04'5 5.4
2014-Apr-05 01:33N 51°24' E 004°13'7 7.3
2014-Apr-05 00:33N 51°17' E 004°19'6 5.5
2014-Apr-04 23:33N 51°12' E 004°21'6 5.6
2014-Apr-04 22:34N 51°07' E 004°18'  

Dump ship's entire track history

sailing weather and tide predictions

Doris T — V2HR — position and weather